sensor_id;sensor_type;location;lat;lon;timestamp;P1;durP1;ratioP1;P2;durP2;ratioP2
8074;SDS011;4080;42.676;23.372;2022-12-11T00:01:49;20.93;;;13.73;;
8074;SDS011;4080;42.676;23.372;2022-12-11T00:04:16;22.10;;;14.07;;
8074;SDS011;4080;42.676;23.372;2022-12-11T00:06:42;19.47;;;14.07;;
8074;SDS011;4080;42.676;23.372;2022-12-11T00:09:09;19.20;;;13.73;;
8074;SDS011;4080;42.676;23.372;2022-12-11T00:11:36;21.60;;;14.27;;
8074;SDS011;4080;42.676;23.372;2022-12-11T00:14:03;12.60;;;8.47;;
8074;SDS011;4080;42.676;23.372;2022-12-11T00:16:31;19.33;;;12.43;;
8074;SDS011;4080;42.676;23.372;2022-12-11T00:18:58;19.20;;;12.40;;
8074;SDS011;4080;42.676;23.372;2022-12-11T00:21:24;16.87;;;13.30;;
8074;SDS011;4080;42.676;23.372;2022-12-11T00:23:51;20.27;;;13.87;;
8074;SDS011;4080;42.676;23.372;2022-12-11T00:26:18;16.57;;;12.77;;
8074;SDS011;4080;42.676;23.372;2022-12-11T00:28:45;19.60;;;13.57;;
8074;SDS011;4080;42.676;23.372;2022-12-11T00:31:14;19.37;;;13.07;;
8074;SDS011;4080;42.676;23.372;2022-12-11T00:33:44;18.37;;;12.77;;
8074;SDS011;4080;42.676;23.372;2022-12-11T00:36:13;23.80;;;14.03;;
8074;SDS011;4080;42.676;23.372;2022-12-11T00:38:41;21.63;;;13.70;;
8074;SDS011;4080;42.676;23.372;2022-12-11T00:41:08;20.77;;;13.10;;
8074;SDS011;4080;42.676;23.372;2022-12-11T00:43:35;23.47;;;14.73;;
8074;SDS011;4080;42.676;23.372;2022-12-11T00:46:02;21.03;;;14.63;;
8074;SDS011;4080;42.676;23.372;2022-12-11T00:48:29;16.77;;;13.30;;
8074;SDS011;4080;42.676;23.372;2022-12-11T00:50:57;16.33;;;12.93;;
8074;SDS011;4080;42.676;23.372;2022-12-11T00:53:24;20.27;;;13.83;;
8074;SDS011;4080;42.676;23.372;2022-12-11T00:55:51;17.13;;;13.37;;
8074;SDS011;4080;42.676;23.372;2022-12-11T00:58:17;17.03;;;13.50;;
8074;SDS011;4080;42.676;23.372;2022-12-11T01:00:44;19.97;;;14.00;;
8074;SDS011;4080;42.676;23.372;2022-12-11T01:03:13;18.97;;;13.67;;
8074;SDS011;4080;42.676;23.372;2022-12-11T01:05:40;16.73;;;11.20;;
8074;SDS011;4080;42.676;23.372;2022-12-11T01:08:08;19.57;;;10.60;;
8074;SDS011;4080;42.676;23.372;2022-12-11T01:10:35;14.37;;;10.70;;
8074;SDS011;4080;42.676;23.372;2022-12-11T01:13:02;17.63;;;11.03;;
8074;SDS011;4080;42.676;23.372;2022-12-11T01:15:31;17.00;;;12.57;;
8074;SDS011;4080;42.676;23.372;2022-12-11T01:17:59;16.80;;;11.73;;
8074;SDS011;4080;42.676;23.372;2022-12-11T01:20:26;15.97;;;12.73;;
8074;SDS011;4080;42.676;23.372;2022-12-11T01:22:53;19.47;;;12.90;;
8074;SDS011;4080;42.676;23.372;2022-12-11T01:25:23;16.70;;;12.77;;
8074;SDS011;4080;42.676;23.372;2022-12-11T01:27:51;18.03;;;12.60;;
8074;SDS011;4080;42.676;23.372;2022-12-11T01:30:19;17.77;;;12.53;;
8074;SDS011;4080;42.676;23.372;2022-12-11T01:32:47;17.33;;;11.30;;
8074;SDS011;4080;42.676;23.372;2022-12-11T01:35:14;17.27;;;11.57;;
8074;SDS011;4080;42.676;23.372;2022-12-11T01:37:42;16.03;;;12.30;;
8074;SDS011;4080;42.676;23.372;2022-12-11T01:40:10;16.83;;;12.47;;
8074;SDS011;4080;42.676;23.372;2022-12-11T01:42:40;15.17;;;12.77;;
8074;SDS011;4080;42.676;23.372;2022-12-11T01:47:54;22.80;;;14.07;;
8074;SDS011;4080;42.676;23.372;2022-12-11T01:50:25;17.13;;;13.13;;
8074;SDS011;4080;42.676;23.372;2022-12-11T01:52:52;18.37;;;13.33;;
8074;SDS011;4080;42.676;23.372;2022-12-11T01:55:19;17.27;;;12.83;;
8074;SDS011;4080;42.676;23.372;2022-12-11T01:57:48;15.67;;;11.23;;
8074;SDS011;4080;42.676;23.372;2022-12-11T02:00:17;13.37;;;10.03;;
8074;SDS011;4080;42.676;23.372;2022-12-11T02:02:46;13.70;;;10.87;;
8074;SDS011;4080;42.676;23.372;2022-12-11T02:05:12;11.03;;;8.87;;
8074;SDS011;4080;42.676;23.372;2022-12-11T02:07:40;16.70;;;10.30;;
8074;SDS011;4080;42.676;23.372;2022-12-11T02:10:11;14.37;;;10.90;;
8074;SDS011;4080;42.676;23.372;2022-12-11T02:12:40;13.60;;;10.73;;
8074;SDS011;4080;42.676;23.372;2022-12-11T02:15:16;15.13;;;10.13;;
8074;SDS011;4080;42.676;23.372;2022-12-11T02:17:50;7.67;;;3.77;;
8074;SDS011;4080;42.676;23.372;2022-12-11T02:20:26;5.57;;;4.10;;
8074;SDS011;4080;42.676;23.372;2022-12-11T02:26:01;7.27;;;5.70;;
8074;SDS011;4080;42.676;23.372;2022-12-11T02:28:39;2.10;;;1.73;;
8074;SDS011;4080;42.676;23.372;2022-12-11T02:31:09;9.47;;;6.03;;
8074;SDS011;4080;42.676;23.372;2022-12-11T02:33:40;9.50;;;6.50;;
8074;SDS011;4080;42.676;23.372;2022-12-11T02:36:14;9.27;;;6.17;;
8074;SDS011;4080;42.676;23.372;2022-12-11T02:38:43;9.30;;;5.13;;
8074;SDS011;4080;42.676;23.372;2022-12-11T02:41:15;8.80;;;6.20;;
8074;SDS011;4080;42.676;23.372;2022-12-11T02:43:45;5.47;;;3.90;;
8074;SDS011;4080;42.676;23.372;2022-12-11T02:46:14;4.27;;;3.00;;
8074;SDS011;4080;42.676;23.372;2022-12-11T02:48:43;2.43;;;1.80;;
8074;SDS011;4080;42.676;23.372;2022-12-11T02:51:13;1.43;;;1.27;;
8074;SDS011;4080;42.676;23.372;2022-12-11T02:53:42;2.60;;;1.20;;
8074;SDS011;4080;42.676;23.372;2022-12-11T02:56:11;1.40;;;1.30;;
8074;SDS011;4080;42.676;23.372;2022-12-11T02:58:42;5.00;;;3.70;;
8074;SDS011;4080;42.676;23.372;2022-12-11T03:01:13;5.37;;;4.00;;
8074;SDS011;4080;42.676;23.372;2022-12-11T03:03:40;5.50;;;4.00;;
8074;SDS011;4080;42.676;23.372;2022-12-11T03:06:07;5.17;;;4.10;;
8074;SDS011;4080;42.676;23.372;2022-12-11T03:08:39;4.93;;;3.00;;
8074;SDS011;4080;42.676;23.372;2022-12-11T03:11:08;3.20;;;2.33;;
8074;SDS011;4080;42.676;23.372;2022-12-11T03:13:35;3.30;;;1.87;;
8074;SDS011;4080;42.676;23.372;2022-12-11T03:16:06;1.87;;;1.60;;
8074;SDS011;4080;42.676;23.372;2022-12-11T03:18:42;1.40;;;1.30;;
8074;SDS011;4080;42.676;23.372;2022-12-11T03:21:16;1.03;;;0.93;;
8074;SDS011;4080;42.676;23.372;2022-12-11T03:23:49;1.00;;;0.90;;
8074;SDS011;4080;42.676;23.372;2022-12-11T03:26:23;0.80;;;0.80;;
8074;SDS011;4080;42.676;23.372;2022-12-11T03:28:53;1.03;;;0.80;;
8074;SDS011;4080;42.676;23.372;2022-12-11T03:31:26;1.00;;;0.90;;
8074;SDS011;4080;42.676;23.372;2022-12-11T03:33:57;1.07;;;0.80;;
8074;SDS011;4080;42.676;23.372;2022-12-11T03:36:29;1.07;;;0.80;;
8074;SDS011;4080;42.676;23.372;2022-12-11T03:38:58;1.00;;;0.90;;
8074;SDS011;4080;42.676;23.372;2022-12-11T03:41:27;1.17;;;1.07;;
8074;SDS011;4080;42.676;23.372;2022-12-11T03:43:58;2.00;;;1.00;;
8074;SDS011;4080;42.676;23.372;2022-12-11T03:46:28;2.10;;;0.87;;
8074;SDS011;4080;42.676;23.372;2022-12-11T03:48:59;1.77;;;1.10;;
8074;SDS011;4080;42.676;23.372;2022-12-11T03:51:28;5.10;;;1.80;;
8074;SDS011;4080;42.676;23.372;2022-12-11T03:53:57;2.60;;;1.30;;
8074;SDS011;4080;42.676;23.372;2022-12-11T03:56:25;2.30;;;1.80;;
8074;SDS011;4080;42.676;23.372;2022-12-11T03:58:55;2.30;;;1.60;;
8074;SDS011;4080;42.676;23.372;2022-12-11T04:01:21;3.73;;;1.70;;
8074;SDS011;4080;42.676;23.372;2022-12-11T04:03:49;1.77;;;1.57;;
8074;SDS011;4080;42.676;23.372;2022-12-11T04:06:16;2.90;;;1.67;;
8074;SDS011;4080;42.676;23.372;2022-12-11T04:08:43;1.73;;;1.53;;
8074;SDS011;4080;42.676;23.372;2022-12-11T04:11:10;2.63;;;1.33;;
8074;SDS011;4080;42.676;23.372;2022-12-11T04:13:54;1.67;;;1.47;;
8074;SDS011;4080;42.676;23.372;2022-12-11T04:16:34;1.90;;;1.60;;
8074;SDS011;4080;42.676;23.372;2022-12-11T04:19:03;2.63;;;1.50;;
8074;SDS011;4080;42.676;23.372;2022-12-11T04:21:48;1.80;;;1.53;;
8074;SDS011;4080;42.676;23.372;2022-12-11T04:24:32;1.50;;;1.40;;
8074;SDS011;4080;42.676;23.372;2022-12-11T04:26:59;2.47;;;1.60;;
8074;SDS011;4080;42.676;23.372;2022-12-11T04:29:25;1.43;;;1.30;;
8074;SDS011;4080;42.676;23.372;2022-12-11T04:31:52;1.83;;;1.40;;
8074;SDS011;4080;42.676;23.372;2022-12-11T04:34:20;2.63;;;1.60;;
8074;SDS011;4080;42.676;23.372;2022-12-11T04:36:47;2.33;;;1.27;;
8074;SDS011;4080;42.676;23.372;2022-12-11T04:39:14;3.00;;;1.50;;
8074;SDS011;4080;42.676;23.372;2022-12-11T04:41:40;2.20;;;1.20;;
8074;SDS011;4080;42.676;23.372;2022-12-11T04:44:07;0.80;;;0.80;;
8074;SDS011;4080;42.676;23.372;2022-12-11T04:46:34;1.47;;;0.83;;
8074;SDS011;4080;42.676;23.372;2022-12-11T04:49:01;1.73;;;0.90;;
8074;SDS011;4080;42.676;23.372;2022-12-11T04:51:29;1.70;;;1.07;;
8074;SDS011;4080;42.676;23.372;2022-12-11T04:53:57;2.20;;;1.63;;
8074;SDS011;4080;42.676;23.372;2022-12-11T04:56:23;1.10;;;0.90;;
8074;SDS011;4080;42.676;23.372;2022-12-11T04:58:50;1.33;;;0.70;;
8074;SDS011;4080;42.676;23.372;2022-12-11T05:01:18;1.43;;;1.00;;
8074;SDS011;4080;42.676;23.372;2022-12-11T05:03:47;2.73;;;1.00;;
8074;SDS011;4080;42.676;23.372;2022-12-11T05:06:13;1.23;;;0.77;;
8074;SDS011;4080;42.676;23.372;2022-12-11T05:08:42;2.90;;;0.87;;
8074;SDS011;4080;42.676;23.372;2022-12-11T05:11:10;1.90;;;0.80;;
8074;SDS011;4080;42.676;23.372;2022-12-11T05:13:37;0.83;;;0.63;;
8074;SDS011;4080;42.676;23.372;2022-12-11T05:16:05;1.27;;;0.97;;
8074;SDS011;4080;42.676;23.372;2022-12-11T05:18:33;1.43;;;0.80;;
8074;SDS011;4080;42.676;23.372;2022-12-11T05:21:01;1.97;;;0.90;;
8074;SDS011;4080;42.676;23.372;2022-12-11T05:23:29;0.90;;;0.80;;
8074;SDS011;4080;42.676;23.372;2022-12-11T05:25:58;3.67;;;1.20;;
8074;SDS011;4080;42.676;23.372;2022-12-11T05:28:27;1.30;;;0.90;;
8074;SDS011;4080;42.676;23.372;2022-12-11T05:30:57;2.77;;;1.03;;
8074;SDS011;4080;42.676;23.372;2022-12-11T05:33:25;2.47;;;0.93;;
8074;SDS011;4080;42.676;23.372;2022-12-11T05:35:52;2.47;;;1.03;;
8074;SDS011;4080;42.676;23.372;2022-12-11T05:38:19;1.83;;;1.00;;
8074;SDS011;4080;42.676;23.372;2022-12-11T05:40:53;1.03;;;0.80;;
8074;SDS011;4080;42.676;23.372;2022-12-11T05:43:22;1.73;;;1.00;;
8074;SDS011;4080;42.676;23.372;2022-12-11T05:45:49;3.30;;;1.27;;
8074;SDS011;4080;42.676;23.372;2022-12-11T05:48:15;3.00;;;1.03;;
8074;SDS011;4080;42.676;23.372;2022-12-11T05:50:42;1.80;;;0.90;;
8074;SDS011;4080;42.676;23.372;2022-12-11T05:53:09;2.83;;;1.03;;
8074;SDS011;4080;42.676;23.372;2022-12-11T05:55:36;2.67;;;1.27;;
8074;SDS011;4080;42.676;23.372;2022-12-11T05:58:03;1.50;;;1.20;;
8074;SDS011;4080;42.676;23.372;2022-12-11T06:00:31;1.17;;;0.90;;
8074;SDS011;4080;42.676;23.372;2022-12-11T06:02:57;2.23;;;1.00;;
8074;SDS011;4080;42.676;23.372;2022-12-11T06:05:24;1.47;;;1.13;;
8074;SDS011;4080;42.676;23.372;2022-12-11T06:07:51;1.30;;;1.00;;
8074;SDS011;4080;42.676;23.372;2022-12-11T06:10:18;2.53;;;1.00;;
8074;SDS011;4080;42.676;23.372;2022-12-11T06:12:44;3.63;;;1.20;;
8074;SDS011;4080;42.676;23.372;2022-12-11T06:15:11;2.87;;;0.90;;
8074;SDS011;4080;42.676;23.372;2022-12-11T06:17:39;1.43;;;1.00;;
8074;SDS011;4080;42.676;23.372;2022-12-11T06:20:06;6.53;;;3.43;;
8074;SDS011;4080;42.676;23.372;2022-12-11T06:22:33;3.77;;;1.30;;
8074;SDS011;4080;42.676;23.372;2022-12-11T06:25:00;0.97;;;0.90;;
8074;SDS011;4080;42.676;23.372;2022-12-11T06:27:27;1.60;;;1.10;;
8074;SDS011;4080;42.676;23.372;2022-12-11T06:29:53;2.23;;;1.40;;
8074;SDS011;4080;42.676;23.372;2022-12-11T06:32:20;2.13;;;1.20;;
8074;SDS011;4080;42.676;23.372;2022-12-11T06:34:48;4.53;;;1.43;;
8074;SDS011;4080;42.676;23.372;2022-12-11T06:37:15;4.87;;;1.20;;
8074;SDS011;4080;42.676;23.372;2022-12-11T06:39:41;14.13;;;11.87;;
8074;SDS011;4080;42.676;23.372;2022-12-11T06:42:08;4.50;;;1.67;;
8074;SDS011;4080;42.676;23.372;2022-12-11T06:44:35;1.83;;;1.00;;
8074;SDS011;4080;42.676;23.372;2022-12-11T06:47:02;3.00;;;1.60;;
8074;SDS011;4080;42.676;23.372;2022-12-11T06:49:29;2.33;;;1.30;;
8074;SDS011;4080;42.676;23.372;2022-12-11T06:51:57;1.70;;;1.20;;
8074;SDS011;4080;42.676;23.372;2022-12-11T06:54:24;1.20;;;1.10;;
8074;SDS011;4080;42.676;23.372;2022-12-11T06:56:51;2.43;;;1.20;;
8074;SDS011;4080;42.676;23.372;2022-12-11T06:59:18;1.00;;;0.90;;
8074;SDS011;4080;42.676;23.372;2022-12-11T07:01:45;0.93;;;0.83;;
8074;SDS011;4080;42.676;23.372;2022-12-11T07:04:11;1.13;;;1.00;;
8074;SDS011;4080;42.676;23.372;2022-12-11T07:06:38;1.70;;;0.90;;
8074;SDS011;4080;42.676;23.372;2022-12-11T07:09:06;1.40;;;1.00;;
8074;SDS011;4080;42.676;23.372;2022-12-11T07:11:34;1.50;;;1.00;;
8074;SDS011;4080;42.676;23.372;2022-12-11T07:14:00;2.97;;;1.20;;
8074;SDS011;4080;42.676;23.372;2022-12-11T07:16:27;1.37;;;0.80;;
8074;SDS011;4080;42.676;23.372;2022-12-11T07:18:54;1.40;;;1.00;;
8074;SDS011;4080;42.676;23.372;2022-12-11T07:21:20;4.00;;;1.30;;
8074;SDS011;4080;42.676;23.372;2022-12-11T07:23:47;3.03;;;1.07;;
8074;SDS011;4080;42.676;23.372;2022-12-11T07:26:22;1.93;;;1.17;;
8074;SDS011;4080;42.676;23.372;2022-12-11T07:28:52;1.93;;;1.23;;
8074;SDS011;4080;42.676;23.372;2022-12-11T07:31:28;1.80;;;1.00;;
8074;SDS011;4080;42.676;23.372;2022-12-11T07:34:05;1.60;;;1.10;;
8074;SDS011;4080;42.676;23.372;2022-12-11T07:36:33;2.03;;;1.13;;
8074;SDS011;4080;42.676;23.372;2022-12-11T07:39:00;1.87;;;1.17;;
8074;SDS011;4080;42.676;23.372;2022-12-11T07:41:28;2.97;;;1.00;;
8074;SDS011;4080;42.676;23.372;2022-12-11T07:43:56;2.83;;;1.30;;
8074;SDS011;4080;42.676;23.372;2022-12-11T07:46:25;2.77;;;1.40;;
8074;SDS011;4080;42.676;23.372;2022-12-11T07:48:53;3.10;;;1.17;;
8074;SDS011;4080;42.676;23.372;2022-12-11T07:51:20;2.10;;;1.30;;
8074;SDS011;4080;42.676;23.372;2022-12-11T07:53:51;17.40;;;13.53;;
8074;SDS011;4080;42.676;23.372;2022-12-11T07:56:19;4.40;;;2.03;;
8074;SDS011;4080;42.676;23.372;2022-12-11T07:58:48;2.67;;;1.60;;
8074;SDS011;4080;42.676;23.372;2022-12-11T08:01:15;2.27;;;1.60;;
8074;SDS011;4080;42.676;23.372;2022-12-11T08:03:43;2.40;;;1.43;;
8074;SDS011;4080;42.676;23.372;2022-12-11T08:06:10;1.80;;;1.50;;
8074;SDS011;4080;42.676;23.372;2022-12-11T08:08:38;1.40;;;1.30;;
8074;SDS011;4080;42.676;23.372;2022-12-11T08:11:06;4.47;;;1.43;;
8074;SDS011;4080;42.676;23.372;2022-12-11T08:13:34;3.77;;;1.40;;
8074;SDS011;4080;42.676;23.372;2022-12-11T08:16:03;2.23;;;1.53;;
8074;SDS011;4080;42.676;23.372;2022-12-11T08:18:31;3.23;;;1.20;;
8074;SDS011;4080;42.676;23.372;2022-12-11T08:20:58;5.20;;;3.00;;
8074;SDS011;4080;42.676;23.372;2022-12-11T08:23:29;4.27;;;3.47;;
8074;SDS011;4080;42.676;23.372;2022-12-11T08:25:56;2.10;;;1.90;;
8074;SDS011;4080;42.676;23.372;2022-12-11T08:28:23;2.97;;;1.87;;
8074;SDS011;4080;42.676;23.372;2022-12-11T08:30:49;2.27;;;1.40;;
8074;SDS011;4080;42.676;23.372;2022-12-11T08:33:17;3.37;;;1.90;;
8074;SDS011;4080;42.676;23.372;2022-12-11T08:35:45;1.50;;;1.40;;
8074;SDS011;4080;42.676;23.372;2022-12-11T08:38:11;1.30;;;1.20;;
8074;SDS011;4080;42.676;23.372;2022-12-11T08:40:38;2.07;;;1.30;;
8074;SDS011;4080;42.676;23.372;2022-12-11T08:43:05;1.40;;;1.30;;
8074;SDS011;4080;42.676;23.372;2022-12-11T08:45:31;3.03;;;2.10;;
8074;SDS011;4080;42.676;23.372;2022-12-11T08:47:58;1.60;;;1.40;;
8074;SDS011;4080;42.676;23.372;2022-12-11T08:50:27;2.30;;;1.77;;
8074;SDS011;4080;42.676;23.372;2022-12-11T08:52:53;1.57;;;1.30;;
8074;SDS011;4080;42.676;23.372;2022-12-11T08:55:20;3.07;;;1.63;;
8074;SDS011;4080;42.676;23.372;2022-12-11T08:57:47;1.43;;;1.27;;
8074;SDS011;4080;42.676;23.372;2022-12-11T09:00:14;7.00;;;4.03;;
8074;SDS011;4080;42.676;23.372;2022-12-11T09:02:42;3.87;;;2.43;;
8074;SDS011;4080;42.676;23.372;2022-12-11T09:05:09;1.73;;;1.30;;
8074;SDS011;4080;42.676;23.372;2022-12-11T09:07:37;2.57;;;1.73;;
8074;SDS011;4080;42.676;23.372;2022-12-11T09:10:05;3.00;;;2.27;;
8074;SDS011;4080;42.676;23.372;2022-12-11T09:12:34;4.13;;;3.57;;
8074;SDS011;4080;42.676;23.372;2022-12-11T09:15:02;4.53;;;2.20;;
8074;SDS011;4080;42.676;23.372;2022-12-11T09:17:29;2.63;;;1.87;;
8074;SDS011;4080;42.676;23.372;2022-12-11T09:19:55;3.37;;;1.50;;
8074;SDS011;4080;42.676;23.372;2022-12-11T09:22:22;2.17;;;1.70;;
8074;SDS011;4080;42.676;23.372;2022-12-11T09:24:50;3.80;;;2.00;;
8074;SDS011;4080;42.676;23.372;2022-12-11T09:27:17;4.43;;;1.70;;
8074;SDS011;4080;42.676;23.372;2022-12-11T09:29:45;2.20;;;1.87;;
8074;SDS011;4080;42.676;23.372;2022-12-11T09:32:12;2.27;;;1.40;;
8074;SDS011;4080;42.676;23.372;2022-12-11T09:34:38;2.33;;;1.40;;
8074;SDS011;4080;42.676;23.372;2022-12-11T09:37:05;2.60;;;1.40;;
8074;SDS011;4080;42.676;23.372;2022-12-11T09:39:31;2.30;;;1.60;;
8074;SDS011;4080;42.676;23.372;2022-12-11T09:42:01;2.23;;;1.80;;
8074;SDS011;4080;42.676;23.372;2022-12-11T09:44:36;4.47;;;1.77;;
8074;SDS011;4080;42.676;23.372;2022-12-11T09:49:58;2.30;;;1.67;;
8074;SDS011;4080;42.676;23.372;2022-12-11T09:52:33;2.17;;;1.53;;
8074;SDS011;4080;42.676;23.372;2022-12-11T09:55:03;2.60;;;1.80;;
8074;SDS011;4080;42.676;23.372;2022-12-11T09:57:42;1.57;;;1.37;;
8074;SDS011;4080;42.676;23.372;2022-12-11T10:00:19;2.97;;;1.60;;
8074;SDS011;4080;42.676;23.372;2022-12-11T10:03:03;3.70;;;1.80;;
8074;SDS011;4080;42.676;23.372;2022-12-11T10:05:49;3.37;;;2.43;;
8074;SDS011;4080;42.676;23.372;2022-12-11T10:08:22;2.70;;;2.10;;
8074;SDS011;4080;42.676;23.372;2022-12-11T10:10:56;2.13;;;1.93;;
8074;SDS011;4080;42.676;23.372;2022-12-11T10:13:34;3.03;;;1.90;;
8074;SDS011;4080;42.676;23.372;2022-12-11T10:16:10;2.00;;;1.57;;
8074;SDS011;4080;42.676;23.372;2022-12-11T10:18:45;4.33;;;2.10;;
8074;SDS011;4080;42.676;23.372;2022-12-11T10:21:12;3.37;;;1.90;;
8074;SDS011;4080;42.676;23.372;2022-12-11T10:23:42;4.03;;;3.30;;
8074;SDS011;4080;42.676;23.372;2022-12-11T10:26:14;6.23;;;4.97;;
8074;SDS011;4080;42.676;23.372;2022-12-11T10:28:44;4.87;;;2.90;;
8074;SDS011;4080;42.676;23.372;2022-12-11T10:31:13;6.20;;;2.97;;
8074;SDS011;4080;42.676;23.372;2022-12-11T10:33:46;2.47;;;2.17;;
8074;SDS011;4080;42.676;23.372;2022-12-11T10:36:25;2.23;;;2.03;;
8074;SDS011;4080;42.676;23.372;2022-12-11T10:38:53;4.33;;;2.60;;
8074;SDS011;4080;42.676;23.372;2022-12-11T10:41:20;2.50;;;2.30;;
8074;SDS011;4080;42.676;23.372;2022-12-11T10:43:51;3.37;;;2.60;;
8074;SDS011;4080;42.676;23.372;2022-12-11T10:46:19;3.83;;;3.27;;
8074;SDS011;4080;42.676;23.372;2022-12-11T10:48:47;4.77;;;3.63;;
8074;SDS011;4080;42.676;23.372;2022-12-11T10:51:17;3.30;;;2.30;;
8074;SDS011;4080;42.676;23.372;2022-12-11T10:53:48;2.90;;;2.67;;
8074;SDS011;4080;42.676;23.372;2022-12-11T10:56:23;4.33;;;2.30;;
8074;SDS011;4080;42.676;23.372;2022-12-11T10:58:52;7.93;;;5.47;;
8074;SDS011;4080;42.676;23.372;2022-12-11T11:01:21;8.00;;;5.00;;
8074;SDS011;4080;42.676;23.372;2022-12-11T11:03:53;16.23;;;8.73;;
8074;SDS011;4080;42.676;23.372;2022-12-11T11:06:23;10.00;;;6.57;;
8074;SDS011;4080;42.676;23.372;2022-12-11T11:08:51;5.70;;;3.80;;
8074;SDS011;4080;42.676;23.372;2022-12-11T11:11:20;4.60;;;3.03;;
8074;SDS011;4080;42.676;23.372;2022-12-11T11:13:49;3.20;;;2.47;;
8074;SDS011;4080;42.676;23.372;2022-12-11T11:16:29;5.30;;;2.87;;
8074;SDS011;4080;42.676;23.372;2022-12-11T11:18:56;3.27;;;2.33;;
8074;SDS011;4080;42.676;23.372;2022-12-11T11:21:24;3.17;;;2.63;;
8074;SDS011;4080;42.676;23.372;2022-12-11T11:23:52;3.87;;;2.20;;
8074;SDS011;4080;42.676;23.372;2022-12-11T11:26:20;2.47;;;2.27;;
8074;SDS011;4080;42.676;23.372;2022-12-11T11:28:48;3.00;;;2.33;;
8074;SDS011;4080;42.676;23.372;2022-12-11T11:31:19;4.13;;;2.30;;
8074;SDS011;4080;42.676;23.372;2022-12-11T11:33:51;3.13;;;2.10;;
8074;SDS011;4080;42.676;23.372;2022-12-11T11:36:21;2.20;;;2.00;;
8074;SDS011;4080;42.676;23.372;2022-12-11T11:38:55;3.33;;;2.20;;
8074;SDS011;4080;42.676;23.372;2022-12-11T11:41:30;5.53;;;4.27;;
8074;SDS011;4080;42.676;23.372;2022-12-11T11:44:04;11.73;;;7.90;;
8074;SDS011;4080;42.676;23.372;2022-12-11T11:46:37;10.23;;;7.50;;
8074;SDS011;4080;42.676;23.372;2022-12-11T11:49:11;11.20;;;6.97;;
8074;SDS011;4080;42.676;23.372;2022-12-11T11:51:45;8.67;;;6.10;;
8074;SDS011;4080;42.676;23.372;2022-12-11T11:54:19;6.57;;;3.60;;
8074;SDS011;4080;42.676;23.372;2022-12-11T11:56:55;8.40;;;4.67;;
8074;SDS011;4080;42.676;23.372;2022-12-11T11:59:24;7.20;;;3.70;;
8074;SDS011;4080;42.676;23.372;2022-12-11T12:01:56;6.80;;;3.80;;
8074;SDS011;4080;42.676;23.372;2022-12-11T12:04:24;4.90;;;4.07;;
8074;SDS011;4080;42.676;23.372;2022-12-11T12:06:59;5.67;;;4.47;;
8074;SDS011;4080;42.676;23.372;2022-12-11T12:09:39;4.13;;;3.73;;
8074;SDS011;4080;42.676;23.372;2022-12-11T12:12:16;5.13;;;3.60;;
8074;SDS011;4080;42.676;23.372;2022-12-11T12:14:53;5.33;;;4.10;;
8074;SDS011;4080;42.676;23.372;2022-12-11T12:17:34;7.53;;;5.40;;
8074;SDS011;4080;42.676;23.372;2022-12-11T12:20:13;7.03;;;4.90;;
8074;SDS011;4080;42.676;23.372;2022-12-11T12:22:51;4.87;;;3.93;;
8074;SDS011;4080;42.676;23.372;2022-12-11T12:25:26;11.73;;;8.63;;
8074;SDS011;4080;42.676;23.372;2022-12-11T12:27:59;11.67;;;7.90;;
8074;SDS011;4080;42.676;23.372;2022-12-11T12:30:39;6.10;;;4.33;;
8074;SDS011;4080;42.676;23.372;2022-12-11T12:33:20;4.73;;;4.00;;
8074;SDS011;4080;42.676;23.372;2022-12-11T12:35:59;4.00;;;3.10;;
8074;SDS011;4080;42.676;23.372;2022-12-11T12:38:33;3.50;;;2.67;;
8074;SDS011;4080;42.676;23.372;2022-12-11T12:41:11;3.17;;;2.60;;
8074;SDS011;4080;42.676;23.372;2022-12-11T12:43:46;4.03;;;2.70;;
8074;SDS011;4080;42.676;23.372;2022-12-11T12:46:27;3.40;;;2.93;;
8074;SDS011;4080;42.676;23.372;2022-12-11T12:49:07;3.97;;;2.77;;
8074;SDS011;4080;42.676;23.372;2022-12-11T12:51:37;4.27;;;2.60;;
8074;SDS011;4080;42.676;23.372;2022-12-11T12:54:05;3.53;;;2.70;;
8074;SDS011;4080;42.676;23.372;2022-12-11T12:56:34;3.47;;;2.70;;
8074;SDS011;4080;42.676;23.372;2022-12-11T12:59:02;2.60;;;2.40;;
8074;SDS011;4080;42.676;23.372;2022-12-11T13:01:29;4.90;;;4.07;;
8074;SDS011;4080;42.676;23.372;2022-12-11T13:03:57;4.10;;;2.90;;
8074;SDS011;4080;42.676;23.372;2022-12-11T13:06:31;4.27;;;2.77;;
8074;SDS011;4080;42.676;23.372;2022-12-11T13:09:15;8.37;;;2.50;;
8074;SDS011;4080;42.676;23.372;2022-12-11T13:11:44;2.63;;;2.30;;
8074;SDS011;4080;42.676;23.372;2022-12-11T13:14:25;3.20;;;2.60;;
8074;SDS011;4080;42.676;23.372;2022-12-11T13:17:06;3.40;;;2.83;;
8074;SDS011;4080;42.676;23.372;2022-12-11T13:19:49;4.67;;;2.30;;
8074;SDS011;4080;42.676;23.372;2022-12-11T13:22:23;4.73;;;2.70;;
8074;SDS011;4080;42.676;23.372;2022-12-11T13:24:56;3.53;;;2.30;;
8074;SDS011;4080;42.676;23.372;2022-12-11T13:27:26;4.43;;;2.90;;
8074;SDS011;4080;42.676;23.372;2022-12-11T13:30:03;4.10;;;2.10;;
8074;SDS011;4080;42.676;23.372;2022-12-11T13:32:31;2.30;;;1.60;;
8074;SDS011;4080;42.676;23.372;2022-12-11T13:35:03;2.17;;;1.93;;
8074;SDS011;4080;42.676;23.372;2022-12-11T13:37:33;2.67;;;2.00;;
8074;SDS011;4080;42.676;23.372;2022-12-11T13:40:06;2.17;;;1.70;;
8074;SDS011;4080;42.676;23.372;2022-12-11T13:42:43;5.10;;;2.10;;
8074;SDS011;4080;42.676;23.372;2022-12-11T13:45:17;2.27;;;1.97;;
8074;SDS011;4080;42.676;23.372;2022-12-11T13:47:48;2.23;;;2.03;;
8074;SDS011;4080;42.676;23.372;2022-12-11T13:50:16;3.80;;;2.07;;
8074;SDS011;4080;42.676;23.372;2022-12-11T13:52:55;3.33;;;2.07;;
8074;SDS011;4080;42.676;23.372;2022-12-11T13:55:23;2.63;;;1.60;;
8074;SDS011;4080;42.676;23.372;2022-12-11T13:57:51;2.80;;;1.90;;
8074;SDS011;4080;42.676;23.372;2022-12-11T14:00:19;2.27;;;1.90;;
8074;SDS011;4080;42.676;23.372;2022-12-11T14:02:48;2.37;;;1.80;;
8074;SDS011;4080;42.676;23.372;2022-12-11T14:05:16;2.20;;;2.00;;
8074;SDS011;4080;42.676;23.372;2022-12-11T14:07:45;3.00;;;1.80;;
8074;SDS011;4080;42.676;23.372;2022-12-11T14:10:17;1.70;;;1.40;;
8074;SDS011;4080;42.676;23.372;2022-12-11T14:12:46;4.60;;;1.70;;
8074;SDS011;4080;42.676;23.372;2022-12-11T14:15:16;1.40;;;1.30;;
8074;SDS011;4080;42.676;23.372;2022-12-11T14:17:44;1.80;;;1.60;;
8074;SDS011;4080;42.676;23.372;2022-12-11T14:20:14;6.33;;;2.50;;
8074;SDS011;4080;42.676;23.372;2022-12-11T14:22:47;2.93;;;1.97;;
8074;SDS011;4080;42.676;23.372;2022-12-11T14:25:22;3.03;;;2.07;;
8074;SDS011;4080;42.676;23.372;2022-12-11T14:27:51;1.97;;;1.73;;
8074;SDS011;4080;42.676;23.372;2022-12-11T14:30:20;3.90;;;3.23;;
8074;SDS011;4080;42.676;23.372;2022-12-11T14:32:49;3.57;;;2.60;;
8074;SDS011;4080;42.676;23.372;2022-12-11T14:35:22;3.57;;;2.70;;
8074;SDS011;4080;42.676;23.372;2022-12-11T14:37:51;3.37;;;2.40;;
8074;SDS011;4080;42.676;23.372;2022-12-11T14:40:21;3.73;;;2.40;;
8074;SDS011;4080;42.676;23.372;2022-12-11T14:42:54;3.43;;;2.50;;
8074;SDS011;4080;42.676;23.372;2022-12-11T14:45:26;2.87;;;2.30;;
8074;SDS011;4080;42.676;23.372;2022-12-11T14:47:58;4.93;;;2.50;;
8074;SDS011;4080;42.676;23.372;2022-12-11T14:50:26;4.43;;;2.67;;
8074;SDS011;4080;42.676;23.372;2022-12-11T14:53:01;4.43;;;2.83;;
8074;SDS011;4080;42.676;23.372;2022-12-11T14:55:34;6.00;;;2.23;;
8074;SDS011;4080;42.676;23.372;2022-12-11T14:58:04;3.13;;;2.03;;
8074;SDS011;4080;42.676;23.372;2022-12-11T15:00:39;2.63;;;2.00;;
8074;SDS011;4080;42.676;23.372;2022-12-11T15:03:06;2.73;;;2.20;;
8074;SDS011;4080;42.676;23.372;2022-12-11T15:05:48;4.10;;;2.53;;
8074;SDS011;4080;42.676;23.372;2022-12-11T15:08:17;3.70;;;2.57;;
8074;SDS011;4080;42.676;23.372;2022-12-11T15:11:01;4.03;;;2.60;;
8074;SDS011;4080;42.676;23.372;2022-12-11T15:13:29;4.60;;;2.30;;
8074;SDS011;4080;42.676;23.372;2022-12-11T15:15:58;3.63;;;2.70;;
8074;SDS011;4080;42.676;23.372;2022-12-11T15:18:26;3.83;;;2.90;;
8074;SDS011;4080;42.676;23.372;2022-12-11T15:20:56;3.23;;;2.63;;
8074;SDS011;4080;42.676;23.372;2022-12-11T15:23:25;4.17;;;2.70;;